createdAt,value
2023-03-31T00:05:10.164Z,9.30
2023-03-31T00:08:14.493Z,9.20
2023-03-31T00:11:16.970Z,9.80
2023-03-31T00:14:21.208Z,9.30
2023-03-31T00:17:23.261Z,9.30
2023-03-31T00:20:27.990Z,7.50
2023-03-31T00:23:31.200Z,6.90
2023-03-31T00:26:35.096Z,6.60
2023-03-31T00:29:41.152Z,7.80
2023-03-31T00:32:43.172Z,7.10
2023-03-31T00:35:45.652Z,6.60
2023-03-31T00:38:49.105Z,5.50
2023-03-31T00:41:51.778Z,6.50
2023-03-31T00:45:18.854Z,6.30
2023-03-31T00:48:23.675Z,7.70
2023-03-31T00:51:30.501Z,6.40
2023-03-31T00:54:34.453Z,6.10
2023-03-31T00:57:40.725Z,6.80
2023-03-31T01:00:43.110Z,8.00
2023-03-31T01:03:48.015Z,7.60
2023-03-31T01:07:16.327Z,8.50
2023-03-31T01:10:18.994Z,8.70
2023-03-31T01:13:23.934Z,8.20
2023-03-31T01:16:26.063Z,8.40
2023-03-31T01:20:11.795Z,9.10
2023-03-31T01:23:52.031Z,9.10
2023-03-31T01:27:27.095Z,9.40
2023-03-31T01:30:40.840Z,8.60
2023-03-31T01:33:58.269Z,9.70
2023-03-31T01:37:05.660Z,13.50
2023-03-31T01:40:19.295Z,15.80
2023-03-31T01:43:24.135Z,15.90
2023-03-31T01:46:33.612Z,18.00
2023-03-31T01:49:54.482Z,18.10
2023-03-31T01:53:16.932Z,16.60
2023-03-31T01:56:30.163Z,14.60
2023-03-31T01:59:59.160Z,13.20
2023-03-31T02:05:00.939Z,11.50
2023-03-31T02:08:23.488Z,11.60
2023-03-31T02:11:30.059Z,11.10
2023-03-31T02:14:34.985Z,11.00
2023-03-31T02:17:42.878Z,10.20
2023-03-31T02:20:52.243Z,10.70
2023-03-31T02:23:58.727Z,10.40
2023-03-31T02:27:16.236Z,11.00
2023-03-31T02:30:19.874Z,10.40
2023-03-31T02:33:33.478Z,10.50
2023-03-31T02:36:38.140Z,9.10
2023-03-31T02:39:51.647Z,9.30
2023-03-31T02:42:57.336Z,9.00
2023-03-31T02:46:02.136Z,9.40
2023-03-31T02:49:11.300Z,8.30
2023-03-31T02:52:34.224Z,7.70
2023-03-31T02:56:17.763Z,9.20
2023-03-31T02:59:51.167Z,9.00
2023-03-31T03:03:10.220Z,9.20
2023-03-31T03:06:22.444Z,10.10
2023-03-31T03:10:02.840Z,8.40
2023-03-31T03:13:12.598Z,9.10
2023-03-31T03:16:26.005Z,9.70
2023-03-31T03:19:30.429Z,8.20
2023-03-31T03:22:34.237Z,9.10
2023-03-31T03:25:38.955Z,9.60
2023-03-31T03:28:43.789Z,9.80
2023-03-31T03:31:49.363Z,9.70
2023-03-31T03:34:53.759Z,9.80
2023-03-31T03:37:57.472Z,9.50
2023-03-31T03:41:00.878Z,9.00
2023-03-31T03:44:04.980Z,9.30
2023-03-31T03:47:10.875Z,9.40
2023-03-31T03:50:16.558Z,9.10
2023-03-31T03:53:20.916Z,9.70
2023-03-31T03:59:30.887Z,8.90
2023-03-31T04:04:52.544Z,9.80
2023-03-31T04:07:56.229Z,10.50
2023-03-31T04:11:10.085Z,10.50
2023-03-31T04:14:13.677Z,10.20
2023-03-31T04:17:32.722Z,10.60
2023-03-31T04:20:39.630Z,9.40
2023-03-31T04:23:47.220Z,10.20
2023-03-31T04:26:51.189Z,9.30
2023-03-31T04:29:55.364Z,10.10
2023-03-31T04:33:03.119Z,10.40
2023-03-31T04:36:19.452Z,9.90
2023-03-31T04:39:27.203Z,11.10
2023-03-31T04:42:34.139Z,10.70
2023-03-31T04:45:37.587Z,9.80
2023-03-31T04:48:42.163Z,11.10
2023-03-31T04:51:45.972Z,10.40
2023-03-31T04:54:51.836Z,10.30
2023-03-31T04:57:55.139Z,10.00
2023-03-31T05:01:00.083Z,9.30
2023-03-31T05:04:05.690Z,9.50
2023-03-31T05:07:09.633Z,9.40
2023-03-31T05:10:13.234Z,8.00
2023-03-31T05:13:18.489Z,8.40
2023-03-31T05:16:21.951Z,7.50
2023-03-31T05:19:25.690Z,7.70
2023-03-31T05:22:29.113Z,7.30
2023-03-31T05:25:33.729Z,7.70
2023-03-31T05:28:37.326Z,7.50
2023-03-31T05:31:40.837Z,8.90
2023-03-31T05:34:44.439Z,8.30
2023-03-31T05:37:47.827Z,9.40
2023-03-31T05:40:51.430Z,8.40
2023-03-31T05:43:54.836Z,8.50
2023-03-31T05:46:58.143Z,7.50
2023-03-31T05:50:02.352Z,8.40
2023-03-31T05:53:06.194Z,8.30
2023-03-31T05:56:12.428Z,8.20
2023-03-31T05:59:16.641Z,7.60
2023-03-31T06:04:52.410Z,7.80
2023-03-31T06:07:55.704Z,8.30
2023-03-31T06:11:04.285Z,8.70
2023-03-31T06:14:08.973Z,8.90
2023-03-31T06:17:12.366Z,9.10
2023-03-31T06:20:27.093Z,8.80
2023-03-31T06:23:34.958Z,7.90
2023-03-31T06:26:38.846Z,7.80
2023-03-31T06:29:42.751Z,7.20
2023-03-31T06:32:46.116Z,7.20
2023-03-31T06:35:49.568Z,7.80
2023-03-31T06:38:53.886Z,7.40
2023-03-31T06:41:57.470Z,8.40
2023-03-31T06:45:03.127Z,8.10
2023-03-31T06:48:07.012Z,8.20
2023-03-31T06:51:11.390Z,8.70
2023-03-31T06:54:15.082Z,8.60
2023-03-31T06:57:18.530Z,8.40
2023-03-31T07:00:23.316Z,8.10
2023-03-31T07:03:31.775Z,8.70
2023-03-31T07:06:36.455Z,8.50
2023-03-31T07:09:39.737Z,8.10
2023-03-31T07:12:43.343Z,8.70
2023-03-31T07:15:51.053Z,8.90
2023-03-31T07:18:59.722Z,8.50
2023-03-31T07:22:03.268Z,8.20
2023-03-31T07:25:07.439Z,8.70
2023-03-31T07:28:11.647Z,7.60
2023-03-31T07:31:15.737Z,7.10
2023-03-31T07:34:20.476Z,6.80
2023-03-31T07:37:24.084Z,6.90
2023-03-31T07:40:30.292Z,7.10
2023-03-31T07:43:33.535Z,6.90
2023-03-31T07:46:36.953Z,6.70
2023-03-31T07:49:43.386Z,6.10
2023-03-31T07:52:47.620Z,6.30
2023-03-31T07:55:51.251Z,6.30
2023-03-31T07:58:57.349Z,6.00
2023-03-31T08:02:02.044Z,6.80
2023-03-31T08:05:07.518Z,6.90
2023-03-31T08:08:11.671Z,6.40
2023-03-31T08:11:15.783Z,6.30
2023-03-31T08:14:30.279Z,6.10
2023-03-31T08:17:37.439Z,6.50
2023-03-31T08:20:41.147Z,6.80
2023-03-31T08:23:44.563Z,7.30
2023-03-31T08:26:48.345Z,7.40
2023-03-31T08:29:52.072Z,7.40
2023-03-31T08:32:56.921Z,7.20
2023-03-31T08:36:06.626Z,7.60
2023-03-31T08:39:11.057Z,7.30
2023-03-31T08:42:43.950Z,7.40
2023-03-31T08:45:48.933Z,7.10
2023-03-31T08:48:56.684Z,7.30
2023-03-31T08:52:04.701Z,6.70
2023-03-31T08:55:18.129Z,8.00
2023-03-31T08:58:42.716Z,7.40
2023-03-31T09:02:05.135Z,7.00
2023-03-31T09:05:57.319Z,7.60
2023-03-31T09:09:08.566Z,7.10
2023-03-31T09:12:34.933Z,8.10
2023-03-31T09:15:41.665Z,7.40
2023-03-31T09:18:48.593Z,7.60
2023-03-31T09:21:56.829Z,6.40
2023-03-31T09:25:23.251Z,6.20
2023-03-31T09:28:35.162Z,6.70
2023-03-31T09:31:42.216Z,6.50
2023-03-31T09:34:51.471Z,6.30
2023-03-31T09:37:55.377Z,6.10
2023-03-31T09:41:00.726Z,6.50
2023-03-31T09:44:23.069Z,6.80
2023-03-31T09:47:42.824Z,6.40
2023-03-31T09:50:52.491Z,6.20
2023-03-31T09:54:05.912Z,6.40
2023-03-31T09:57:25.568Z,6.50
2023-03-31T10:00:29.318Z,7.40
2023-03-31T10:05:59.261Z,7.40
2023-03-31T10:09:04.996Z,6.70
2023-03-31T10:12:15.270Z,6.80
2023-03-31T10:15:27.104Z,6.60
2023-03-31T10:18:38.993Z,6.80
2023-03-31T10:21:46.378Z,6.50
2023-03-31T10:24:50.929Z,7.70
2023-03-31T10:27:56.340Z,7.10
2023-03-31T10:31:03.709Z,8.40
2023-03-31T10:34:11.975Z,9.20
2023-03-31T10:37:19.245Z,9.00
2023-03-31T10:40:25.588Z,8.30
2023-03-31T10:43:36.769Z,10.10
2023-03-31T10:46:52.224Z,9.10
2023-03-31T10:49:57.318Z,10.00
2023-03-31T10:53:26.432Z,16.20
2023-03-31T10:56:48.995Z,10.90
2023-03-31T11:00:12.525Z,11.00
2023-03-31T11:03:50.973Z,10.30
2023-03-31T11:07:22.115Z,8.80
2023-03-31T11:10:43.308Z,10.10
2023-03-31T11:13:54.699Z,9.90
2023-03-31T11:17:21.699Z,9.60
2023-03-31T11:20:51.254Z,8.20
2023-03-31T11:24:34.594Z,8.60
2023-03-31T11:28:08.816Z,8.30
2023-03-31T11:31:30.575Z,7.40
2023-03-31T11:34:48.480Z,8.60
2023-03-31T11:38:29.781Z,6.60
2023-03-31T11:41:42.297Z,8.10
2023-03-31T11:45:16.610Z,7.80
2023-03-31T11:48:33.724Z,7.50
2023-03-31T11:51:48.716Z,6.60
2023-03-31T11:55:02.391Z,6.40
2023-03-31T11:58:12.545Z,7.30
2023-03-31T12:01:23.581Z,6.90
2023-03-31T12:04:37.829Z,7.00
2023-03-31T12:08:00.991Z,6.50
2023-03-31T12:11:15.040Z,6.50
2023-03-31T12:14:54.382Z,7.00
2023-03-31T12:18:09.872Z,7.00
2023-03-31T12:21:13.375Z,6.80
2023-03-31T12:24:16.765Z,7.60
2023-03-31T12:27:32.360Z,7.40
2023-03-31T12:30:38.812Z,7.40
2023-03-31T12:33:45.232Z,8.40
2023-03-31T12:37:00.420Z,7.50
2023-03-31T12:40:33.095Z,6.70
2023-03-31T12:43:43.421Z,5.70
2023-03-31T12:47:00.926Z,5.40
2023-03-31T12:50:34.256Z,6.50
2023-03-31T12:53:39.816Z,6.30
2023-03-31T12:57:11.297Z,7.50
2023-03-31T13:00:20.559Z,6.50
2023-03-31T13:03:46.890Z,7.40
2023-03-31T13:06:55.170Z,6.10
2023-03-31T13:10:24.802Z,5.90
2023-03-31T13:13:27.130Z,6.60
2023-03-31T13:16:32.428Z,7.30
2023-03-31T13:19:36.305Z,6.80
2023-03-31T13:22:45.369Z,6.70
2023-03-31T13:25:52.553Z,6.90
2023-03-31T13:29:14.234Z,7.50
2023-03-31T13:32:22.617Z,6.80
2023-03-31T13:35:30.509Z,6.00
2023-03-31T13:38:41.020Z,6.50
2023-03-31T13:42:11.142Z,7.30
2023-03-31T13:45:44.568Z,6.80
2023-03-31T13:49:40.185Z,6.80
2023-03-31T13:52:57.816Z,7.00
2023-03-31T13:56:24.562Z,7.30
2023-03-31T14:00:00.515Z,7.00
2023-03-31T14:05:29.758Z,7.40
2023-03-31T14:08:41.120Z,6.40
2023-03-31T14:11:45.558Z,7.80
2023-03-31T14:14:53.340Z,7.20
2023-03-31T14:17:56.867Z,6.40
2023-03-31T14:21:24.636Z,6.70
2023-03-31T14:24:46.761Z,7.30
2023-03-31T14:27:54.151Z,9.40
2023-03-31T14:31:25.869Z,10.60
2023-03-31T14:34:45.763Z,11.60
2023-03-31T14:37:51.670Z,9.50
2023-03-31T14:40:57.926Z,8.80
2023-03-31T14:44:03.234Z,9.30
2023-03-31T14:47:21.697Z,11.20
2023-03-31T14:50:35.785Z,8.40
2023-03-31T14:53:40.011Z,8.20
2023-03-31T14:56:45.491Z,8.90
2023-03-31T14:59:52.954Z,10.90
2023-03-31T15:02:58.451Z,11.00
2023-03-31T15:06:04.885Z,29.10
2023-03-31T15:09:13.938Z,14.40
2023-03-31T15:12:21.078Z,10.40
2023-03-31T15:15:27.179Z,11.20
2023-03-31T15:18:31.985Z,11.40
2023-03-31T15:21:39.072Z,12.30
2023-03-31T15:24:42.670Z,11.60
2023-03-31T15:27:51.497Z,11.60
2023-03-31T15:31:09.028Z,11.30
2023-03-31T15:34:33.503Z,10.90
2023-03-31T15:37:44.485Z,11.90
2023-03-31T15:40:55.773Z,10.80
2023-03-31T15:44:08.194Z,13.30
2023-03-31T15:47:25.746Z,11.60
2023-03-31T15:50:30.334Z,11.10
2023-03-31T15:53:49.418Z,10.20
2023-03-31T15:56:59.514Z,10.00
2023-03-31T16:00:07.040Z,10.90
2023-03-31T16:03:29.195Z,12.40
2023-03-31T16:06:56.967Z,12.20
2023-03-31T16:10:07.738Z,13.90
2023-03-31T16:13:23.393Z,14.20
2023-03-31T16:16:28.861Z,14.80
2023-03-31T16:19:41.618Z,13.10
2023-03-31T16:22:48.219Z,15.90
2023-03-31T16:25:51.917Z,16.00
2023-03-31T16:28:57.806Z,13.40
2023-03-31T16:32:14.071Z,14.60
2023-03-31T16:35:22.459Z,14.70
2023-03-31T16:38:29.323Z,13.70
2023-03-31T16:41:34.886Z,15.20
2023-03-31T16:44:38.810Z,14.20
2023-03-31T16:51:06.423Z,15.60
2023-03-31T16:54:09.772Z,15.40
2023-03-31T16:57:17.596Z,19.20
2023-03-31T17:00:21.405Z,16.80
2023-03-31T17:03:27.856Z,18.30
2023-03-31T17:06:31.472Z,19.90
2023-03-31T17:09:34.968Z,17.00
2023-03-31T17:12:39.339Z,18.00
2023-03-31T17:15:42.685Z,16.00
2023-03-31T17:18:49.360Z,16.60
2023-03-31T17:21:52.771Z,17.60
2023-03-31T17:24:58.684Z,17.90
2023-03-31T17:28:04.572Z,17.10
2023-03-31T17:31:13.627Z,19.00
2023-03-31T17:34:18.136Z,17.90
2023-03-31T17:37:21.848Z,18.30
2023-03-31T17:40:26.838Z,24.60
2023-03-31T17:43:33.660Z,20.60
2023-03-31T17:46:37.711Z,20.20
2023-03-31T17:49:43.050Z,20.20
2023-03-31T17:52:46.738Z,23.30
2023-03-31T17:55:50.015Z,23.30
2023-03-31T17:58:53.628Z,23.10
2023-03-31T18:05:10.955Z,23.60
2023-03-31T18:08:13.511Z,22.30
2023-03-31T18:11:16.740Z,24.30
2023-03-31T18:26:14.055Z,24.80
2023-03-31T18:29:17.888Z,28.00
2023-03-31T18:32:21.573Z,26.70
2023-03-31T18:35:25.024Z,32.30
2023-03-31T18:38:30.140Z,29.80
2023-03-31T18:41:33.737Z,29.60
2023-03-31T18:44:37.025Z,28.70
2023-03-31T18:47:41.383Z,31.10
2023-03-31T18:50:46.469Z,27.40
2023-03-31T18:53:50.732Z,29.20
2023-03-31T18:56:54.121Z,28.30
2023-03-31T18:59:57.942Z,30.00
2023-03-31T19:03:02.262Z,29.10
2023-03-31T19:06:11.555Z,31.30
2023-03-31T19:09:16.718Z,30.10
2023-03-31T19:12:20.223Z,29.00
2023-03-31T19:15:23.724Z,30.10
2023-03-31T19:18:29.464Z,29.30
2023-03-31T19:21:33.503Z,31.90
2023-03-31T19:24:37.103Z,31.40
2023-03-31T19:27:41.723Z,29.50
2023-03-31T19:30:45.230Z,31.40
2023-03-31T19:33:49.754Z,24.80
2023-03-31T19:36:54.177Z,27.40
2023-03-31T19:39:57.945Z,26.10
2023-03-31T19:43:01.782Z,26.00
2023-03-31T19:46:05.737Z,24.50
2023-03-31T19:49:09.759Z,25.20
2023-03-31T19:52:15.629Z,28.10
2023-03-31T19:55:19.077Z,25.90
2023-03-31T19:58:22.884Z,25.70
2023-03-31T20:01:28.425Z,24.50
2023-03-31T20:04:33.765Z,25.80
2023-03-31T20:07:37.079Z,25.40
2023-03-31T20:10:42.481Z,24.80
2023-03-31T20:13:46.441Z,24.90
2023-03-31T20:16:51.664Z,23.70
2023-03-31T20:19:55.690Z,24.60
2023-03-31T20:23:00.148Z,26.50
2023-03-31T20:26:07.428Z,25.50
2023-03-31T20:29:12.259Z,26.10
2023-03-31T20:32:17.586Z,24.50
2023-03-31T20:35:21.496Z,27.10
2023-03-31T20:38:25.312Z,27.40
2023-03-31T20:41:29.987Z,27.50
2023-03-31T20:44:33.595Z,28.80
2023-03-31T20:47:37.185Z,26.60
2023-03-31T20:50:42.225Z,28.00
2023-03-31T20:53:49.053Z,29.30
2023-03-31T20:56:52.704Z,30.00
2023-03-31T20:59:57.494Z,28.80
2023-03-31T21:03:03.542Z,27.60
2023-03-31T21:06:11.200Z,27.50
2023-03-31T21:09:18.290Z,26.70
2023-03-31T21:12:21.678Z,27.60
2023-03-31T21:15:25.682Z,27.50
2023-03-31T21:18:30.628Z,26.80
2023-03-31T21:21:36.162Z,26.70
2023-03-31T21:24:41.452Z,29.20
2023-03-31T21:27:45.128Z,27.60
2023-03-31T21:30:56.276Z,29.40
2023-03-31T21:34:02.719Z,27.20
2023-03-31T21:37:07.010Z,28.40
2023-03-31T21:40:11.305Z,29.30
2023-03-31T21:43:16.532Z,26.60
2023-03-31T21:46:26.302Z,28.60
2023-03-31T21:49:29.479Z,29.70
2023-03-31T21:52:33.557Z,29.20
2023-03-31T21:55:38.629Z,29.50
2023-03-31T21:58:42.994Z,30.60
2023-03-31T22:04:53.063Z,33.90
2023-03-31T22:07:56.928Z,30.30
2023-03-31T22:11:01.380Z,32.00
2023-03-31T22:14:06.496Z,29.40
2023-03-31T22:17:09.847Z,30.00
2023-03-31T22:20:13.903Z,32.80
2023-03-31T22:23:17.725Z,31.60
2023-03-31T22:26:22.287Z,31.60
2023-03-31T22:29:26.044Z,30.60
2023-03-31T22:32:29.523Z,30.70
2023-03-31T22:35:34.623Z,30.00
2023-03-31T22:38:38.904Z,28.00
2023-03-31T22:41:44.045Z,30.70
2023-03-31T22:44:47.239Z,28.10
2023-03-31T22:47:50.778Z,31.30
2023-03-31T22:50:54.172Z,31.90
2023-03-31T22:53:58.365Z,29.90
2023-03-31T22:57:02.638Z,31.90
2023-03-31T23:00:07.285Z,31.30
2023-03-31T23:03:11.115Z,30.00
2023-03-31T23:06:15.875Z,29.70
2023-03-31T23:09:19.674Z,30.10
2023-03-31T23:12:26.133Z,29.70
2023-03-31T23:15:30.764Z,32.50
2023-03-31T23:18:34.781Z,30.00
2023-03-31T23:21:41.248Z,31.10
2023-03-31T23:24:44.860Z,31.50
2023-03-31T23:27:48.964Z,32.20
2023-03-31T23:30:56.660Z,32.50
2023-03-31T23:34:01.207Z,31.80
2023-03-31T23:37:04.490Z,32.00
2023-03-31T23:40:09.916Z,30.20
2023-03-31T23:43:13.942Z,30.30
2023-03-31T23:46:18.052Z,31.60
2023-03-31T23:49:21.574Z,29.70
2023-03-31T23:52:25.339Z,29.30
2023-03-31T23:55:28.764Z,29.40
2023-03-31T23:58:32.613Z,28.50
